Muenster, Germany

8:48 AM CEST on October 22, 2014 (GMT +0200)
ladbergen | Change Station
CLOSE
Current Station
Personal Weather Station
Location: Ladbergen, NORDRHEIN-WESTFALEN
Elevation: 167 ft
Nearby Weather Stations

Elev 167 ft 52.14 °N, 7.74 °E | Updated 9 seconds ago

Light Rain
Light Rain Drizzle
45.3 °F
Feels Like 45 °F
N
0.0
Wind Variable Wind from SW
Gusts 0.0 mph

Today
High -- | Low -- °F
--% Chance of Precip.
Yesterday
High -- | Low -- °F
Precip. -- in
8:06 AM 6:20 PM
Waning Crescent, 3% visible
Pressure 29.77 in
Visibility 5.6 miles
Clouds Few 1800 ft
Mostly Cloudy 3700 ft
Windchill 45 °F
Dew Point 42 °F
Humidity 87%
Rainfall 0.00 in
Snow Depth Not available.
UV 0.0 out of 12
Pollen Not available.
Air Quality Not available.
Flu Activity Not available.
SPECI ETND 220639Z 27017KT 9000 -RADZ FEW018 BKN037 08/06 Q1008 BLACKBLU

More Conditions Fewer Conditions

Pressure 29.77 in
Visibility 5.6 miles
Clouds Few 1800 ft
Mostly Cloudy 3700 ft
Windchill 45 °F
Dew Point 42 °F
Humidity 87%
Rainfall 0.00 in
Snow Depth Not available.
UV 0.0 out of 12
Pollen Not available.
Air Quality Not available.
Flu Activity Not available.
SPECI ETND 220639Z 27017KT 9000 -RADZ FEW018 BKN037 08/06 Q1008 BLACKBLU

More Conditions Fewer Conditions

10-Day Weather Forecast

Almanac

Astronomy

Oct. 22, 2014 Rise Set
Actual Time 8:06 AM CEST 6:20 PM CEST
Civil Twilight 7:31 AM CEST 6:55 PM CEST
Nautical Twilight 6:51 AM CEST 7:34 PM CEST
Astronomical Twilight 6:12 AM CEST 8:13 PM CEST
Moon 6:20 AM CEST 5:46 PM CEST
Length of Visible Light 11h 23m
Length of Day
10h 14m
Tomorrow will be 3m 50s shorter.
Waning Crescent, 3% of the Moon is Illuminated
Today
Waning Crescent
Oct 23
New
Oct 30
First Quarter
Nov 6
Full
Nov 14
Last Quarter

Yesterday's Extremes

Country Highs Country Lows

Community

WunderPhotos

Upload Photos

1,763,884 photos uploaded!

Nearby

Snow Depth

Not available.

Earthquake Activity

City Distance Mag. Time & Date
No recent earthquake activity has been reported nearby.
Minimum magnitude displayed is 2.5.

Coastal Water Temperatures

Place Temperature
No Stations Reporting

Nearby Weather Stations